sensor_id;sensor_type;location;lat;lon;timestamp;temperature;humidity
20915;DHT22;10617;52.032;5.298;2022-08-01T00:00:27;20.20;99.90
20915;DHT22;10617;52.032;5.298;2022-08-01T00:04:28;20.20;99.90
20915;DHT22;10617;52.032;5.298;2022-08-01T00:08:30;20.10;99.90
20915;DHT22;10617;52.032;5.298;2022-08-01T00:12:32;20.10;99.90
20915;DHT22;10617;52.032;5.298;2022-08-01T00:16:33;20.10;99.90
20915;DHT22;10617;52.032;5.298;2022-08-01T00:20:35;20.10;99.90
20915;DHT22;10617;52.032;5.298;2022-08-01T00:24:37;20.10;99.90
20915;DHT22;10617;52.032;5.298;2022-08-01T00:28:38;20.10;99.90
20915;DHT22;10617;52.032;5.298;2022-08-01T00:32:41;20.00;99.90
20915;DHT22;10617;52.032;5.298;2022-08-01T00:36:43;20.00;99.90
20915;DHT22;10617;52.032;5.298;2022-08-01T00:40:45;20.00;99.90
20915;DHT22;10617;52.032;5.298;2022-08-01T00:44:46;19.90;99.90
20915;DHT22;10617;52.032;5.298;2022-08-01T00:48:48;19.90;99.90
20915;DHT22;10617;52.032;5.298;2022-08-01T00:52:50;19.90;99.90
20915;DHT22;10617;52.032;5.298;2022-08-01T00:56:53;19.90;99.90
20915;DHT22;10617;52.032;5.298;2022-08-01T01:00:54;19.90;99.90
20915;DHT22;10617;52.032;5.298;2022-08-01T01:04:56;19.90;99.90
20915;DHT22;10617;52.032;5.298;2022-08-01T01:13:07;19.90;99.90
20915;DHT22;10617;52.032;5.298;2022-08-01T01:17:10;19.90;99.90
20915;DHT22;10617;52.032;5.298;2022-08-01T01:33:56;19.90;99.90
20915;DHT22;10617;52.032;5.298;2022-08-01T01:38:07;19.80;99.90
20915;DHT22;10617;52.032;5.298;2022-08-01T01:42:10;19.80;99.90
20915;DHT22;10617;52.032;5.298;2022-08-01T01:46:12;19.80;99.90
20915;DHT22;10617;52.032;5.298;2022-08-01T01:50:14;19.70;99.90
20915;DHT22;10617;52.032;5.298;2022-08-01T01:54:16;19.70;99.90
20915;DHT22;10617;52.032;5.298;2022-08-01T01:58:19;19.80;99.90
20915;DHT22;10617;52.032;5.298;2022-08-01T02:02:21;19.70;99.90
20915;DHT22;10617;52.032;5.298;2022-08-01T02:06:24;19.80;99.90
20915;DHT22;10617;52.032;5.298;2022-08-01T02:10:27;19.70;99.90
20915;DHT22;10617;52.032;5.298;2022-08-01T02:14:29;19.70;99.90
20915;DHT22;10617;52.032;5.298;2022-08-01T02:18:32;19.80;99.90
20915;DHT22;10617;52.032;5.298;2022-08-01T02:22:34;19.80;99.90
20915;DHT22;10617;52.032;5.298;2022-08-01T02:26:38;19.80;99.90
20915;DHT22;10617;52.032;5.298;2022-08-01T02:30:44;19.80;99.90
20915;DHT22;10617;52.032;5.298;2022-08-01T02:34:47;19.80;99.90
20915;DHT22;10617;52.032;5.298;2022-08-01T02:38:50;19.70;99.90
20915;DHT22;10617;52.032;5.298;2022-08-01T02:42:53;19.70;99.90
20915;DHT22;10617;52.032;5.298;2022-08-01T02:47:02;19.70;99.90
20915;DHT22;10617;52.032;5.298;2022-08-01T02:51:05;19.70;99.90
20915;DHT22;10617;52.032;5.298;2022-08-01T02:55:07;19.70;99.90
20915;DHT22;10617;52.032;5.298;2022-08-01T02:59:12;19.70;99.90
20915;DHT22;10617;52.032;5.298;2022-08-01T03:03:14;19.60;99.90
20915;DHT22;10617;52.032;5.298;2022-08-01T03:07:16;19.60;99.90
20915;DHT22;10617;52.032;5.298;2022-08-01T03:11:19;19.60;99.90
20915;DHT22;10617;52.032;5.298;2022-08-01T03:15:21;19.60;99.90
20915;DHT22;10617;52.032;5.298;2022-08-01T03:19:24;19.60;99.90
20915;DHT22;10617;52.032;5.298;2022-08-01T03:23:27;19.60;99.90
20915;DHT22;10617;52.032;5.298;2022-08-01T03:27:39;19.60;99.90
20915;DHT22;10617;52.032;5.298;2022-08-01T03:31:41;19.60;99.90
20915;DHT22;10617;52.032;5.298;2022-08-01T03:35:48;19.60;99.90
20915;DHT22;10617;52.032;5.298;2022-08-01T03:39:55;19.60;99.90
20915;DHT22;10617;52.032;5.298;2022-08-01T03:44:02;19.60;99.90
20915;DHT22;10617;52.032;5.298;2022-08-01T03:48:10;19.50;99.90
20915;DHT22;10617;52.032;5.298;2022-08-01T03:52:12;19.60;99.90
20915;DHT22;10617;52.032;5.298;2022-08-01T03:56:16;19.50;99.90
20915;DHT22;10617;52.032;5.298;2022-08-01T04:00:18;19.50;99.90
20915;DHT22;10617;52.032;5.298;2022-08-01T04:04:19;19.50;99.90
20915;DHT22;10617;52.032;5.298;2022-08-01T04:08:21;19.50;99.90
20915;DHT22;10617;52.032;5.298;2022-08-01T04:12:23;19.50;99.90
20915;DHT22;10617;52.032;5.298;2022-08-01T04:16:25;19.50;99.90
20915;DHT22;10617;52.032;5.298;2022-08-01T04:20:26;19.50;99.90
20915;DHT22;10617;52.032;5.298;2022-08-01T04:24:28;19.50;99.90
20915;DHT22;10617;52.032;5.298;2022-08-01T04:28:32;19.40;99.90
20915;DHT22;10617;52.032;5.298;2022-08-01T04:32:38;19.40;99.90
20915;DHT22;10617;52.032;5.298;2022-08-01T04:36:40;19.50;99.90
20915;DHT22;10617;52.032;5.298;2022-08-01T04:40:44;19.40;99.90
20915;DHT22;10617;52.032;5.298;2022-08-01T04:44:47;19.40;99.90
20915;DHT22;10617;52.032;5.298;2022-08-01T04:48:48;19.40;99.90
20915;DHT22;10617;52.032;5.298;2022-08-01T04:52:51;19.50;99.90
20915;DHT22;10617;52.032;5.298;2022-08-01T04:56:53;19.50;99.90
20915;DHT22;10617;52.032;5.298;2022-08-01T05:01:00;19.50;99.90
20915;DHT22;10617;52.032;5.298;2022-08-01T05:05:02;19.50;99.90
20915;DHT22;10617;52.032;5.298;2022-08-01T05:09:04;19.40;99.90
20915;DHT22;10617;52.032;5.298;2022-08-01T05:13:06;19.40;99.90
20915;DHT22;10617;52.032;5.298;2022-08-01T05:17:08;19.50;99.90
20915;DHT22;10617;52.032;5.298;2022-08-01T05:21:10;19.40;99.90
20915;DHT22;10617;52.032;5.298;2022-08-01T05:25:11;19.50;99.90
20915;DHT22;10617;52.032;5.298;2022-08-01T05:29:13;19.50;99.90
20915;DHT22;10617;52.032;5.298;2022-08-01T05:33:15;19.50;99.90
20915;DHT22;10617;52.032;5.298;2022-08-01T05:37:17;19.50;99.90
20915;DHT22;10617;52.032;5.298;2022-08-01T05:41:18;19.50;99.90
20915;DHT22;10617;52.032;5.298;2022-08-01T05:45:20;19.50;99.90
20915;DHT22;10617;52.032;5.298;2022-08-01T05:49:22;19.60;99.90
20915;DHT22;10617;52.032;5.298;2022-08-01T05:53:23;19.60;99.90
20915;DHT22;10617;52.032;5.298;2022-08-01T05:57:25;19.60;99.90
20915;DHT22;10617;52.032;5.298;2022-08-01T06:01:29;19.60;99.90
20915;DHT22;10617;52.032;5.298;2022-08-01T06:05:30;19.60;99.90
20915;DHT22;10617;52.032;5.298;2022-08-01T06:09:32;19.60;99.90
20915;DHT22;10617;52.032;5.298;2022-08-01T06:13:34;19.60;99.90
20915;DHT22;10617;52.032;5.298;2022-08-01T06:17:45;19.60;99.90
20915;DHT22;10617;52.032;5.298;2022-08-01T06:21:47;19.60;99.90
20915;DHT22;10617;52.032;5.298;2022-08-01T06:25:51;19.50;99.90
20915;DHT22;10617;52.032;5.298;2022-08-01T06:29:53;19.50;99.90
20915;DHT22;10617;52.032;5.298;2022-08-01T06:33:55;19.50;99.90
20915;DHT22;10617;52.032;5.298;2022-08-01T06:37:58;19.40;99.90
20915;DHT22;10617;52.032;5.298;2022-08-01T06:42:00;19.40;99.90
20915;DHT22;10617;52.032;5.298;2022-08-01T06:46:01;19.40;99.90
20915;DHT22;10617;52.032;5.298;2022-08-01T06:50:03;19.40;99.90
20915;DHT22;10617;52.032;5.298;2022-08-01T06:54:05;19.40;99.90
20915;DHT22;10617;52.032;5.298;2022-08-01T06:58:07;19.40;99.90
20915;DHT22;10617;52.032;5.298;2022-08-01T07:02:09;19.40;99.90
20915;DHT22;10617;52.032;5.298;2022-08-01T07:06:11;19.40;99.90
20915;DHT22;10617;52.032;5.298;2022-08-01T07:10:12;19.40;99.90
20915;DHT22;10617;52.032;5.298;2022-08-01T07:14:14;19.40;99.90
20915;DHT22;10617;52.032;5.298;2022-08-01T07:18:15;19.50;99.90
20915;DHT22;10617;52.032;5.298;2022-08-01T07:22:17;19.40;99.90
20915;DHT22;10617;52.032;5.298;2022-08-01T07:26:24;19.50;99.90
20915;DHT22;10617;52.032;5.298;2022-08-01T07:30:25;19.50;99.90
20915;DHT22;10617;52.032;5.298;2022-08-01T07:34:27;19.50;99.90
20915;DHT22;10617;52.032;5.298;2022-08-01T07:38:29;19.50;99.90
20915;DHT22;10617;52.032;5.298;2022-08-01T07:42:31;19.50;99.90
20915;DHT22;10617;52.032;5.298;2022-08-01T07:46:32;19.50;99.90
20915;DHT22;10617;52.032;5.298;2022-08-01T07:50:34;19.50;99.90
20915;DHT22;10617;52.032;5.298;2022-08-01T07:54:36;19.50;99.90
20915;DHT22;10617;52.032;5.298;2022-08-01T07:58:38;19.50;99.90
20915;DHT22;10617;52.032;5.298;2022-08-01T08:02:39;19.50;99.90
20915;DHT22;10617;52.032;5.298;2022-08-01T08:06:41;19.40;99.90
20915;DHT22;10617;52.032;5.298;2022-08-01T08:10:42;19.40;99.90
20915;DHT22;10617;52.032;5.298;2022-08-01T08:14:44;19.40;99.90
20915;DHT22;10617;52.032;5.298;2022-08-01T08:18:46;19.40;99.90
20915;DHT22;10617;52.032;5.298;2022-08-01T08:22:47;19.40;99.90
20915;DHT22;10617;52.032;5.298;2022-08-01T08:26:50;19.40;99.90
20915;DHT22;10617;52.032;5.298;2022-08-01T08:30:52;19.40;99.90
20915;DHT22;10617;52.032;5.298;2022-08-01T08:34:56;19.50;99.90
20915;DHT22;10617;52.032;5.298;2022-08-01T08:38:58;19.50;99.90
20915;DHT22;10617;52.032;5.298;2022-08-01T08:43:04;19.60;99.90
20915;DHT22;10617;52.032;5.298;2022-08-01T08:47:07;19.60;99.90
20915;DHT22;10617;52.032;5.298;2022-08-01T08:51:10;19.70;99.90
20915;DHT22;10617;52.032;5.298;2022-08-01T08:55:12;19.70;99.90
20915;DHT22;10617;52.032;5.298;2022-08-01T08:59:15;19.70;99.90
20915;DHT22;10617;52.032;5.298;2022-08-01T09:03:17;19.80;99.90
20915;DHT22;10617;52.032;5.298;2022-08-01T09:07:19;19.90;99.90
20915;DHT22;10617;52.032;5.298;2022-08-01T09:11:21;19.90;99.90
20915;DHT22;10617;52.032;5.298;2022-08-01T09:15:37;19.90;99.90
20915;DHT22;10617;52.032;5.298;2022-08-01T09:19:39;20.00;99.90
20915;DHT22;10617;52.032;5.298;2022-08-01T09:28:01;20.00;99.90
20915;DHT22;10617;52.032;5.298;2022-08-01T09:32:05;20.10;99.90
20915;DHT22;10617;52.032;5.298;2022-08-01T09:36:07;20.10;99.90
20915;DHT22;10617;52.032;5.298;2022-08-01T09:40:09;20.20;99.90
20915;DHT22;10617;52.032;5.298;2022-08-01T09:44:11;20.20;99.90
20915;DHT22;10617;52.032;5.298;2022-08-01T09:48:13;20.20;99.90
20915;DHT22;10617;52.032;5.298;2022-08-01T09:52:21;20.20;99.90
20915;DHT22;10617;52.032;5.298;2022-08-01T09:56:26;20.30;99.90
20915;DHT22;10617;52.032;5.298;2022-08-01T10:00:36;20.30;99.90
20915;DHT22;10617;52.032;5.298;2022-08-01T10:04:46;20.40;99.90
20915;DHT22;10617;52.032;5.298;2022-08-01T10:08:49;20.50;99.90
20915;DHT22;10617;52.032;5.298;2022-08-01T10:12:51;20.50;99.90
20915;DHT22;10617;52.032;5.298;2022-08-01T10:16:53;20.60;99.90
20915;DHT22;10617;52.032;5.298;2022-08-01T10:21:00;20.70;99.90
20915;DHT22;10617;52.032;5.298;2022-08-01T10:25:03;20.80;99.90
20915;DHT22;10617;52.032;5.298;2022-08-01T10:29:05;20.80;99.90
20915;DHT22;10617;52.032;5.298;2022-08-01T10:33:07;20.90;99.90
20915;DHT22;10617;52.032;5.298;2022-08-01T10:37:08;21.00;99.90
20915;DHT22;10617;52.032;5.298;2022-08-01T10:41:11;21.00;99.90
20915;DHT22;10617;52.032;5.298;2022-08-01T10:45:14;21.00;99.90
20915;DHT22;10617;52.032;5.298;2022-08-01T10:49:16;21.10;99.90
20915;DHT22;10617;52.032;5.298;2022-08-01T10:53:20;21.10;99.90
20915;DHT22;10617;52.032;5.298;2022-08-01T10:57:24;21.10;99.90
20915;DHT22;10617;52.032;5.298;2022-08-01T11:01:31;21.10;99.90
20915;DHT22;10617;52.032;5.298;2022-08-01T11:05:38;21.20;99.90
20915;DHT22;10617;52.032;5.298;2022-08-01T11:09:42;21.20;99.90
20915;DHT22;10617;52.032;5.298;2022-08-01T11:22:30;21.20;99.90
20915;DHT22;10617;52.032;5.298;2022-08-01T11:26:31;21.20;99.90
20915;DHT22;10617;52.032;5.298;2022-08-01T11:30:33;21.20;99.90
20915;DHT22;10617;52.032;5.298;2022-08-01T11:34:54;21.20;99.90
20915;DHT22;10617;52.032;5.298;2022-08-01T11:47:14;21.40;99.90
20915;DHT22;10617;52.032;5.298;2022-08-01T11:51:16;21.40;99.90
20915;DHT22;10617;52.032;5.298;2022-08-01T11:55:26;21.40;99.90
20915;DHT22;10617;52.032;5.298;2022-08-01T11:59:38;21.50;99.90
20915;DHT22;10617;52.032;5.298;2022-08-01T12:03:41;21.50;99.90
20915;DHT22;10617;52.032;5.298;2022-08-01T12:07:49;21.50;99.90
20915;DHT22;10617;52.032;5.298;2022-08-01T12:11:50;21.60;99.90
20915;DHT22;10617;52.032;5.298;2022-08-01T12:15:53;21.60;99.90
20915;DHT22;10617;52.032;5.298;2022-08-01T12:19:57;21.60;99.90
20915;DHT22;10617;52.032;5.298;2022-08-01T12:24:02;21.70;99.90
20915;DHT22;10617;52.032;5.298;2022-08-01T12:28:05;21.70;99.90
20915;DHT22;10617;52.032;5.298;2022-08-01T12:32:21;21.80;99.90
20915;DHT22;10617;52.032;5.298;2022-08-01T12:36:28;21.80;99.90
20915;DHT22;10617;52.032;5.298;2022-08-01T12:40:31;21.80;99.90
20915;DHT22;10617;52.032;5.298;2022-08-01T12:59:37;21.80;99.90
20915;DHT22;10617;52.032;5.298;2022-08-01T13:03:40;22.00;99.90
20915;DHT22;10617;52.032;5.298;2022-08-01T13:07:46;22.10;99.90
20915;DHT22;10617;52.032;5.298;2022-08-01T13:11:48;22.20;99.90
20915;DHT22;10617;52.032;5.298;2022-08-01T13:16:03;22.20;99.90
20915;DHT22;10617;52.032;5.298;2022-08-01T13:20:06;22.20;99.90
20915;DHT22;10617;52.032;5.298;2022-08-01T13:24:11;22.30;99.90
20915;DHT22;10617;52.032;5.298;2022-08-01T13:28:13;22.30;99.90
20915;DHT22;10617;52.032;5.298;2022-08-01T13:32:16;22.30;99.90
20915;DHT22;10617;52.032;5.298;2022-08-01T13:36:29;22.40;99.90
20915;DHT22;10617;52.032;5.298;2022-08-01T13:40:32;22.40;99.90
20915;DHT22;10617;52.032;5.298;2022-08-01T13:44:34;22.50;99.90
20915;DHT22;10617;52.032;5.298;2022-08-01T13:48:36;22.50;99.90
20915;DHT22;10617;52.032;5.298;2022-08-01T13:52:37;22.50;99.90
20915;DHT22;10617;52.032;5.298;2022-08-01T13:56:39;22.60;99.90
20915;DHT22;10617;52.032;5.298;2022-08-01T14:00:40;22.70;99.90
20915;DHT22;10617;52.032;5.298;2022-08-01T14:04:42;22.80;99.90
20915;DHT22;10617;52.032;5.298;2022-08-01T14:08:44;22.80;99.90
20915;DHT22;10617;52.032;5.298;2022-08-01T14:12:47;22.80;99.90
20915;DHT22;10617;52.032;5.298;2022-08-01T14:16:49;22.90;99.90
20915;DHT22;10617;52.032;5.298;2022-08-01T14:20:50;22.90;99.90
20915;DHT22;10617;52.032;5.298;2022-08-01T14:24:55;22.90;99.90
20915;DHT22;10617;52.032;5.298;2022-08-01T14:29:01;22.90;99.90
20915;DHT22;10617;52.032;5.298;2022-08-01T14:33:03;22.90;99.90
20915;DHT22;10617;52.032;5.298;2022-08-01T14:37:04;22.90;99.90
20915;DHT22;10617;52.032;5.298;2022-08-01T14:41:06;23.00;99.90
20915;DHT22;10617;52.032;5.298;2022-08-01T14:45:08;23.00;99.90
20915;DHT22;10617;52.032;5.298;2022-08-01T14:49:10;23.10;99.90
20915;DHT22;10617;52.032;5.298;2022-08-01T14:53:12;23.20;99.90
20915;DHT22;10617;52.032;5.298;2022-08-01T14:57:14;23.20;99.90
20915;DHT22;10617;52.032;5.298;2022-08-01T15:01:19;23.30;99.90
20915;DHT22;10617;52.032;5.298;2022-08-01T15:05:21;23.20;99.90
20915;DHT22;10617;52.032;5.298;2022-08-01T15:09:23;23.30;99.90
20915;DHT22;10617;52.032;5.298;2022-08-01T15:13:25;23.30;99.90
20915;DHT22;10617;52.032;5.298;2022-08-01T15:17:27;23.40;99.90
20915;DHT22;10617;52.032;5.298;2022-08-01T15:21:33;23.40;99.90
20915;DHT22;10617;52.032;5.298;2022-08-01T15:25:42;23.50;99.90
20915;DHT22;10617;52.032;5.298;2022-08-01T15:29:43;23.50;99.90
20915;DHT22;10617;52.032;5.298;2022-08-01T15:33:45;23.60;99.90
20915;DHT22;10617;52.032;5.298;2022-08-01T15:37:47;23.70;99.90
20915;DHT22;10617;52.032;5.298;2022-08-01T15:41:48;23.80;99.90
20915;DHT22;10617;52.032;5.298;2022-08-01T15:45:50;23.90;99.90
20915;DHT22;10617;52.032;5.298;2022-08-01T15:49:52;24.00;99.90
20915;DHT22;10617;52.032;5.298;2022-08-01T15:53:54;24.10;99.90
20915;DHT22;10617;52.032;5.298;2022-08-01T15:57:55;24.30;99.90
20915;DHT22;10617;52.032;5.298;2022-08-01T16:01:57;24.50;99.90
20915;DHT22;10617;52.032;5.298;2022-08-01T16:05:59;24.90;99.90
20915;DHT22;10617;52.032;5.298;2022-08-01T16:10:01;25.40;99.90
20915;DHT22;10617;52.032;5.298;2022-08-01T16:14:02;25.90;99.90
20915;DHT22;10617;52.032;5.298;2022-08-01T16:18:06;26.40;99.90
20915;DHT22;10617;52.032;5.298;2022-08-01T16:22:08;26.80;99.90
20915;DHT22;10617;52.032;5.298;2022-08-01T16:26:11;27.20;99.90
20915;DHT22;10617;52.032;5.298;2022-08-01T16:30:27;27.50;99.90
20915;DHT22;10617;52.032;5.298;2022-08-01T16:34:29;27.80;99.90
20915;DHT22;10617;52.032;5.298;2022-08-01T16:38:31;28.10;99.90
20915;DHT22;10617;52.032;5.298;2022-08-01T16:42:32;28.30;99.90
20915;DHT22;10617;52.032;5.298;2022-08-01T16:46:34;28.40;99.90
20915;DHT22;10617;52.032;5.298;2022-08-01T16:50:36;28.50;99.90
20915;DHT22;10617;52.032;5.298;2022-08-01T16:54:37;28.70;99.90
20915;DHT22;10617;52.032;5.298;2022-08-01T16:58:39;28.70;99.90
20915;DHT22;10617;52.032;5.298;2022-08-01T17:02:41;28.60;99.90
20915;DHT22;10617;52.032;5.298;2022-08-01T17:06:42;28.50;99.90
20915;DHT22;10617;52.032;5.298;2022-08-01T17:10:45;28.40;99.90
20915;DHT22;10617;52.032;5.298;2022-08-01T17:14:47;28.30;99.90
20915;DHT22;10617;52.032;5.298;2022-08-01T17:18:49;28.10;99.90
20915;DHT22;10617;52.032;5.298;2022-08-01T17:22:51;27.80;99.90
20915;DHT22;10617;52.032;5.298;2022-08-01T17:26:53;27.40;99.90
20915;DHT22;10617;52.032;5.298;2022-08-01T17:30:54;27.00;99.90
20915;DHT22;10617;52.032;5.298;2022-08-01T17:34:56;26.60;99.90
20915;DHT22;10617;52.032;5.298;2022-08-01T17:38:58;26.20;99.90
20915;DHT22;10617;52.032;5.298;2022-08-01T17:43:00;25.90;99.90
20915;DHT22;10617;52.032;5.298;2022-08-01T17:47:01;25.60;99.90
20915;DHT22;10617;52.032;5.298;2022-08-01T17:51:03;25.40;99.90
20915;DHT22;10617;52.032;5.298;2022-08-01T17:55:05;25.20;99.90
20915;DHT22;10617;52.032;5.298;2022-08-01T17:59:07;25.10;99.90
20915;DHT22;10617;52.032;5.298;2022-08-01T18:03:08;24.90;99.90
20915;DHT22;10617;52.032;5.298;2022-08-01T18:07:12;24.80;99.90
20915;DHT22;10617;52.032;5.298;2022-08-01T18:11:15;24.60;99.90
20915;DHT22;10617;52.032;5.298;2022-08-01T18:15:17;24.50;99.90
20915;DHT22;10617;52.032;5.298;2022-08-01T18:19:18;24.30;99.90
20915;DHT22;10617;52.032;5.298;2022-08-01T18:23:21;24.20;99.90
20915;DHT22;10617;52.032;5.298;2022-08-01T18:27:22;24.10;99.90
20915;DHT22;10617;52.032;5.298;2022-08-01T18:31:24;24.00;99.90
20915;DHT22;10617;52.032;5.298;2022-08-01T18:35:26;24.00;99.90
20915;DHT22;10617;52.032;5.298;2022-08-01T18:39:33;23.80;99.90
20915;DHT22;10617;52.032;5.298;2022-08-01T18:43:35;23.80;99.90
20915;DHT22;10617;52.032;5.298;2022-08-01T18:47:37;23.70;99.90
20915;DHT22;10617;52.032;5.298;2022-08-01T18:51:39;23.50;99.90
20915;DHT22;10617;52.032;5.298;2022-08-01T18:55:45;23.40;99.90
20915;DHT22;10617;52.032;5.298;2022-08-01T18:59:46;23.20;99.90
20915;DHT22;10617;52.032;5.298;2022-08-01T19:03:48;23.10;99.90
20915;DHT22;10617;52.032;5.298;2022-08-01T19:07:50;22.90;99.90
20915;DHT22;10617;52.032;5.298;2022-08-01T19:12:06;22.70;99.90
20915;DHT22;10617;52.032;5.298;2022-08-01T19:16:07;22.50;99.90
20915;DHT22;10617;52.032;5.298;2022-08-01T19:20:09;22.40;99.90
20915;DHT22;10617;52.032;5.298;2022-08-01T19:24:11;22.20;99.90
20915;DHT22;10617;52.032;5.298;2022-08-01T19:28:24;22.10;99.90
20915;DHT22;10617;52.032;5.298;2022-08-01T19:32:26;21.90;99.90
20915;DHT22;10617;52.032;5.298;2022-08-01T19:36:29;21.80;99.90
20915;DHT22;10617;52.032;5.298;2022-08-01T19:40:31;21.60;99.90
20915;DHT22;10617;52.032;5.298;2022-08-01T19:44:32;21.50;99.90
20915;DHT22;10617;52.032;5.298;2022-08-01T19:48:35;21.30;99.90
20915;DHT22;10617;52.032;5.298;2022-08-01T19:52:37;21.20;99.90
20915;DHT22;10617;52.032;5.298;2022-08-01T19:56:40;21.00;99.90
20915;DHT22;10617;52.032;5.298;2022-08-01T20:00:44;20.90;99.90
20915;DHT22;10617;52.032;5.298;2022-08-01T20:04:48;20.80;99.90
20915;DHT22;10617;52.032;5.298;2022-08-01T20:08:50;20.60;99.90
20915;DHT22;10617;52.032;5.298;2022-08-01T20:12:52;20.50;99.90
20915;DHT22;10617;52.032;5.298;2022-08-01T20:16:56;20.30;99.90
20915;DHT22;10617;52.032;5.298;2022-08-01T20:20:58;20.20;99.90
20915;DHT22;10617;52.032;5.298;2022-08-01T20:25:01;20.10;99.90
20915;DHT22;10617;52.032;5.298;2022-08-01T20:29:03;20.00;99.90
20915;DHT22;10617;52.032;5.298;2022-08-01T20:33:05;20.00;99.90
20915;DHT22;10617;52.032;5.298;2022-08-01T20:37:08;19.90;99.90
20915;DHT22;10617;52.032;5.298;2022-08-01T20:41:13;19.80;99.90
20915;DHT22;10617;52.032;5.298;2022-08-01T20:45:16;19.80;99.90
20915;DHT22;10617;52.032;5.298;2022-08-01T20:49:19;19.70;99.90
20915;DHT22;10617;52.032;5.298;2022-08-01T20:53:22;19.60;99.90
20915;DHT22;10617;52.032;5.298;2022-08-01T20:57:24;19.50;99.90
20915;DHT22;10617;52.032;5.298;2022-08-01T21:01:38;19.40;99.90
20915;DHT22;10617;52.032;5.298;2022-08-01T21:05:43;19.40;99.90
20915;DHT22;10617;52.032;5.298;2022-08-01T21:10:06;19.30;99.90
20915;DHT22;10617;52.032;5.298;2022-08-01T21:14:09;19.20;99.90
20915;DHT22;10617;52.032;5.298;2022-08-01T21:18:14;19.10;99.90
20915;DHT22;10617;52.032;5.298;2022-08-01T21:22:21;19.00;99.90
20915;DHT22;10617;52.032;5.298;2022-08-01T21:26:27;18.90;99.90
20915;DHT22;10617;52.032;5.298;2022-08-01T21:30:29;18.80;99.90
20915;DHT22;10617;52.032;5.298;2022-08-01T21:34:31;18.70;99.90
20915;DHT22;10617;52.032;5.298;2022-08-01T21:38:33;18.70;99.90
20915;DHT22;10617;52.032;5.298;2022-08-01T21:42:37;18.60;99.90
20915;DHT22;10617;52.032;5.298;2022-08-01T21:46:39;18.60;99.90
20915;DHT22;10617;52.032;5.298;2022-08-01T21:54:59;18.40;99.90
20915;DHT22;10617;52.032;5.298;2022-08-01T22:07:12;18.20;99.90
20915;DHT22;10617;52.032;5.298;2022-08-01T22:11:17;18.10;99.90
20915;DHT22;10617;52.032;5.298;2022-08-01T22:15:21;18.10;99.90
20915;DHT22;10617;52.032;5.298;2022-08-01T22:19:23;18.00;99.90
20915;DHT22;10617;52.032;5.298;2022-08-01T22:23:45;18.00;99.90
20915;DHT22;10617;52.032;5.298;2022-08-01T22:27:47;17.90;99.90
20915;DHT22;10617;52.032;5.298;2022-08-01T22:32:06;17.90;99.90
20915;DHT22;10617;52.032;5.298;2022-08-01T22:36:08;17.80;99.90
20915;DHT22;10617;52.032;5.298;2022-08-01T22:40:10;17.80;99.90
20915;DHT22;10617;52.032;5.298;2022-08-01T22:44:13;17.70;99.90
20915;DHT22;10617;52.032;5.298;2022-08-01T22:48:19;17.60;99.90
20915;DHT22;10617;52.032;5.298;2022-08-01T22:52:23;17.60;99.90
20915;DHT22;10617;52.032;5.298;2022-08-01T22:56:28;17.50;99.90
20915;DHT22;10617;52.032;5.298;2022-08-01T23:00:30;17.50;99.90
20915;DHT22;10617;52.032;5.298;2022-08-01T23:04:41;17.40;99.90
20915;DHT22;10617;52.032;5.298;2022-08-01T23:08:44;17.40;99.90
20915;DHT22;10617;52.032;5.298;2022-08-01T23:12:47;17.40;99.90
20915;DHT22;10617;52.032;5.298;2022-08-01T23:16:49;17.40;99.90
20915;DHT22;10617;52.032;5.298;2022-08-01T23:20:51;17.30;99.90
20915;DHT22;10617;52.032;5.298;2022-08-01T23:45:29;17.10;99.90
20915;DHT22;10617;52.032;5.298;2022-08-01T23:49:50;17.10;99.90
20915;DHT22;10617;52.032;5.298;2022-08-01T23:53:54;17.00;99.90
20915;DHT22;10617;52.032;5.298;2022-08-01T23:57:55;16.90;99.90
